createdAt,value
2023-04-15T00:00:35.292Z,85.35
2023-04-15T00:02:38.799Z,86.27
2023-04-15T00:04:42.243Z,85.81
2023-04-15T00:06:53.031Z,86.77
2023-04-15T00:08:56.194Z,85.39
2023-04-15T00:11:02.902Z,86.96
2023-04-15T00:13:07.610Z,85.49
2023-04-15T00:15:12.544Z,85.54
2023-04-15T00:17:15.686Z,86.47
2023-04-15T00:19:19.149Z,86.01
2023-04-15T00:21:22.363Z,86.86
2023-04-15T00:23:26.037Z,85.90
2023-04-15T00:25:29.372Z,86.50
2023-04-15T00:27:32.670Z,87.28
2023-04-15T00:29:37.274Z,87.01
2023-04-15T00:31:40.538Z,86.20
2023-04-15T00:33:43.695Z,85.41
2023-04-15T00:35:46.865Z,86.56
2023-04-15T00:37:50.102Z,86.29
2023-04-15T00:39:53.120Z,86.87
2023-04-15T00:41:57.426Z,86.17
2023-04-15T00:44:00.786Z,87.55
2023-04-15T00:46:06.135Z,87.43
2023-04-15T00:48:09.489Z,86.49
2023-04-15T00:50:13.092Z,86.78
2023-04-15T00:52:16.204Z,87.44
2023-04-15T00:54:19.432Z,87.08
2023-04-15T00:56:24.391Z,86.58
2023-04-15T00:58:29.130Z,85.64
2023-04-15T01:00:35.943Z,86.18
2023-04-15T01:02:41.162Z,85.34
2023-04-15T01:04:44.575Z,84.99
2023-04-15T01:06:47.657Z,85.64
2023-04-15T01:08:50.935Z,86.43
2023-04-15T01:10:54.138Z,87.30
2023-04-15T01:12:57.203Z,86.87
2023-04-15T01:15:02.355Z,85.88
2023-04-15T01:17:05.527Z,85.88
2023-04-15T01:19:12.170Z,86.36
2023-04-15T01:21:15.348Z,86.03
2023-04-15T01:23:18.659Z,86.72
2023-04-15T01:25:32.124Z,86.28
2023-04-15T01:27:36.465Z,86.18
2023-04-15T01:29:40.020Z,86.66
2023-04-15T01:31:50.920Z,85.89
2023-04-15T01:34:12.877Z,86.33
2023-04-15T01:36:34.227Z,85.85
2023-04-15T01:38:37.701Z,85.86
2023-04-15T01:40:42.112Z,85.87
2023-04-15T01:42:46.772Z,86.47
2023-04-15T01:44:53.711Z,85.25
2023-04-15T01:46:58.641Z,85.93
2023-04-15T01:49:06.534Z,86.74
2023-04-15T01:51:11.469Z,86.72
2023-04-15T01:53:15.895Z,86.86
2023-04-15T01:55:20.541Z,86.63
2023-04-15T01:57:26.459Z,86.73
2023-04-15T01:59:32.212Z,86.11
2023-04-15T02:01:36.960Z,86.55
2023-04-15T02:03:41.411Z,86.56
2023-04-15T02:05:46.041Z,86.95
2023-04-15T02:07:50.505Z,86.21
2023-04-15T02:09:55.013Z,86.41
2023-04-15T02:11:59.486Z,86.46
2023-04-15T02:14:05.808Z,86.39
2023-04-15T02:16:17.733Z,86.37
2023-04-15T02:18:22.570Z,86.34
2023-04-15T02:20:26.888Z,86.18
2023-04-15T02:22:31.334Z,86.65
2023-04-15T02:24:35.904Z,86.49
2023-04-15T02:26:40.709Z,86.84
2023-04-15T02:28:45.071Z,86.92
2023-04-15T02:30:54.819Z,86.77
2023-04-15T02:33:01.571Z,86.53
2023-04-15T02:35:06.860Z,86.37
2023-04-15T02:37:13.893Z,86.59
2023-04-15T02:39:18.794Z,86.86
2023-04-15T02:41:27.185Z,86.79
2023-04-15T02:43:31.624Z,87.11
2023-04-15T02:45:36.035Z,87.05
2023-04-15T02:47:44.499Z,86.87
2023-04-15T02:49:49.745Z,86.94
2023-04-15T02:51:54.088Z,87.12
2023-04-15T02:53:59.614Z,87.12
2023-04-15T02:56:04.532Z,86.76
2023-04-15T02:58:08.845Z,86.55
2023-04-15T03:00:14.495Z,86.31
2023-04-15T03:02:20.965Z,85.86
2023-04-15T03:04:26.668Z,84.59
2023-04-15T03:06:31.063Z,85.34
2023-04-15T03:08:35.553Z,85.87
2023-04-15T03:10:39.866Z,85.93
2023-04-15T03:12:45.209Z,86.48
2023-04-15T03:14:54.271Z,86.87
2023-04-15T03:17:04.017Z,86.42
2023-04-15T03:19:08.430Z,87.23
2023-04-15T03:21:14.202Z,87.08
2023-04-15T03:23:18.650Z,87.19
2023-04-15T03:25:22.973Z,88.12
2023-04-15T03:27:27.302Z,87.73
2023-04-15T03:29:34.601Z,88.44
2023-04-15T03:31:38.902Z,88.39
2023-04-15T03:33:43.187Z,88.83
2023-04-15T03:35:47.609Z,88.32
2023-04-15T03:37:53.300Z,88.22
2023-04-15T03:39:57.633Z,87.83
2023-04-15T03:42:03.477Z,87.92
2023-04-15T03:44:07.731Z,87.94
2023-04-15T03:46:12.077Z,87.47
2023-04-15T03:48:18.150Z,87.53
2023-04-15T03:50:22.993Z,87.70
2023-04-15T03:52:27.285Z,87.34
2023-04-15T03:54:32.874Z,87.10
2023-04-15T03:56:37.126Z,87.60
2023-04-15T03:58:41.557Z,87.19
2023-04-15T04:00:45.918Z,87.06
2023-04-15T04:02:50.756Z,86.95
2023-04-15T04:04:55.826Z,87.05
2023-04-15T04:07:00.171Z,86.71
2023-04-15T04:09:04.565Z,87.03
2023-04-15T04:11:10.241Z,86.69
2023-04-15T04:13:14.563Z,86.78
2023-04-15T04:15:19.009Z,87.25
2023-04-15T04:17:23.594Z,86.63
2023-04-15T04:19:27.922Z,86.91
2023-04-15T04:21:34.164Z,86.95
2023-04-15T04:23:38.652Z,87.20
2023-04-15T04:25:43.740Z,86.47
2023-04-15T04:27:49.422Z,86.45
2023-04-15T04:29:53.756Z,87.30
2023-04-15T04:31:58.050Z,86.85
2023-04-15T04:34:02.307Z,86.43
2023-04-15T04:36:07.991Z,86.39
2023-04-15T04:38:12.334Z,86.41
2023-04-15T04:40:17.155Z,87.00
2023-04-15T04:42:21.469Z,86.49
2023-04-15T04:44:27.172Z,87.02
2023-04-15T04:46:31.625Z,86.59
2023-04-15T04:48:35.962Z,86.44
2023-04-15T04:50:40.213Z,86.35
2023-04-15T04:52:44.550Z,86.16
2023-04-15T04:54:48.879Z,86.02
2023-04-15T04:56:53.265Z,86.55
2023-04-15T04:58:57.706Z,86.62
2023-04-15T05:01:03.923Z,87.27
2023-04-15T05:03:08.575Z,87.33
2023-04-15T05:05:13.474Z,87.40
2023-04-15T05:07:17.836Z,87.78
2023-04-15T05:09:22.133Z,87.60
2023-04-15T05:11:26.683Z,87.00
2023-04-15T05:13:31.153Z,87.33
2023-04-15T05:15:37.071Z,88.11
2023-04-15T05:17:44.723Z,88.12
2023-04-15T05:19:49.087Z,87.25
2023-04-15T05:21:53.419Z,87.75
2023-04-15T05:23:58.219Z,86.73
2023-04-15T05:26:02.517Z,86.38
2023-04-15T05:28:07.242Z,85.56
2023-04-15T05:30:13.822Z,85.70
2023-04-15T05:32:18.570Z,86.07
2023-04-15T05:34:24.354Z,86.32
2023-04-15T05:36:29.136Z,85.67
2023-04-15T05:38:33.640Z,85.50
2023-04-15T05:40:38.210Z,85.84
2023-04-15T05:42:42.500Z,86.16
2023-04-15T05:44:46.873Z,86.15
2023-04-15T05:46:51.228Z,86.75
2023-04-15T05:48:56.575Z,87.71
2023-04-15T05:51:02.622Z,87.60
2023-04-15T05:53:07.248Z,86.70
2023-04-15T05:55:11.885Z,86.06
2023-04-15T05:57:16.230Z,86.64
2023-04-15T05:59:20.625Z,85.35
2023-04-15T06:01:25.380Z,84.42
2023-04-15T06:03:29.905Z,85.08
2023-04-15T06:05:36.655Z,83.56
2023-04-15T06:07:44.239Z,82.35
2023-04-15T06:09:49.543Z,82.91
2023-04-15T06:11:54.812Z,80.52
2023-04-15T06:13:59.153Z,82.21
2023-04-15T06:16:04.128Z,81.12
2023-04-15T06:18:08.444Z,81.49
2023-04-15T06:20:14.320Z,79.95
2023-04-15T06:22:18.850Z,79.59
2023-04-15T06:24:24.609Z,78.78
2023-04-15T06:26:29.238Z,78.84
2023-04-15T06:28:33.604Z,79.81
2023-04-15T06:30:38.556Z,79.30
2023-04-15T06:32:42.873Z,78.44
2023-04-15T06:34:47.294Z,78.47
2023-04-15T06:36:51.664Z,77.95
2023-04-15T06:38:56.608Z,78.01
2023-04-15T06:41:02.364Z,77.60
2023-04-15T06:43:06.678Z,79.03
2023-04-15T06:45:12.120Z,78.30
2023-04-15T06:47:16.680Z,80.08
2023-04-15T06:49:20.990Z,78.05
2023-04-15T06:51:26.743Z,80.79
2023-04-15T06:53:31.266Z,79.55
2023-04-15T06:55:35.558Z,78.68
2023-04-15T06:57:41.517Z,77.92
2023-04-15T06:59:46.148Z,78.20
2023-04-15T07:01:50.642Z,78.42
2023-04-15T07:03:55.109Z,77.73
2023-04-15T07:05:59.823Z,79.15
2023-04-15T07:08:04.264Z,81.38
2023-04-15T07:10:10.097Z,81.14
2023-04-15T07:12:14.470Z,81.47
2023-04-15T07:14:20.271Z,81.44
2023-04-15T07:16:24.718Z,81.37
2023-04-15T07:18:29.042Z,79.98
2023-04-15T07:20:33.429Z,81.93
2023-04-15T07:22:37.822Z,81.13
2023-04-15T07:24:42.623Z,78.18
2023-04-15T07:26:47.152Z,78.93
2023-04-15T07:28:51.484Z,78.52
2023-04-15T07:30:58.178Z,76.65
2023-04-15T07:33:02.960Z,77.32
2023-04-15T07:35:07.818Z,77.54
2023-04-15T07:37:12.655Z,75.17
2023-04-15T07:39:17.068Z,75.81
2023-04-15T07:41:21.782Z,76.80
2023-04-15T07:43:26.212Z,74.65
2023-04-15T07:45:30.602Z,76.47
2023-04-15T07:47:36.382Z,76.82
2023-04-15T07:49:40.937Z,76.13
2023-04-15T07:51:45.365Z,74.99
2023-04-15T07:53:50.779Z,73.27
2023-04-15T07:55:55.207Z,69.30
2023-04-15T07:57:59.772Z,69.41
2023-04-15T08:00:07.591Z,70.17
2023-04-15T08:02:18.458Z,69.85
2023-04-15T08:04:24.602Z,70.24
2023-04-15T08:06:29.072Z,70.90
2023-04-15T08:08:33.337Z,69.98
2023-04-15T08:10:38.776Z,72.08
2023-04-15T08:12:43.649Z,70.84
2023-04-15T08:14:48.075Z,71.11
2023-04-15T08:16:52.515Z,70.28
2023-04-15T08:18:57.740Z,70.13
2023-04-15T08:21:03.538Z,69.22
2023-04-15T08:23:07.876Z,69.56
2023-04-15T08:25:12.220Z,70.54
2023-04-15T08:27:16.585Z,69.60
2023-04-15T08:29:21.097Z,70.47
2023-04-15T08:31:27.426Z,71.44
2023-04-15T08:33:31.852Z,69.75
2023-04-15T08:35:36.204Z,68.56
2023-04-15T08:37:42.725Z,68.08
2023-04-15T08:39:47.035Z,69.24
2023-04-15T08:41:53.872Z,68.41
2023-04-15T08:43:59.830Z,69.75
2023-04-15T08:46:05.692Z,68.71
2023-04-15T08:48:11.444Z,69.30
2023-04-15T08:50:15.973Z,70.59
2023-04-15T08:52:21.020Z,68.33
2023-04-15T08:54:27.084Z,67.90
2023-04-15T08:56:33.809Z,69.20
2023-04-15T08:58:38.456Z,70.39
2023-04-15T09:00:43.288Z,68.87
2023-04-15T09:02:47.838Z,67.40
2023-04-15T09:04:52.497Z,65.55
2023-04-15T09:06:57.319Z,66.59
2023-04-15T09:09:01.939Z,68.87
2023-04-15T09:11:08.330Z,67.28
2023-04-15T09:13:13.071Z,67.45
2023-04-15T09:15:17.711Z,66.96
2023-04-15T09:17:22.365Z,66.92
2023-04-15T09:19:27.190Z,66.33
2023-04-15T09:21:33.869Z,68.45
2023-04-15T09:23:39.275Z,68.86
2023-04-15T09:25:43.836Z,67.09
2023-04-15T09:27:51.082Z,67.23
2023-04-15T09:29:55.484Z,66.70
2023-04-15T09:32:11.070Z,65.90
2023-04-15T09:34:15.337Z,64.92
2023-04-15T09:36:20.090Z,66.06
2023-04-15T09:38:24.841Z,65.83
2023-04-15T09:40:37.168Z,64.75
2023-04-15T09:42:58.103Z,60.82
2023-04-15T09:45:10.199Z,62.56
2023-04-15T09:47:29.347Z,60.82
2023-04-15T09:49:34.232Z,59.72
2023-04-15T09:51:38.733Z,59.64
2023-04-15T09:53:43.035Z,57.46
2023-04-15T09:55:48.976Z,57.69
2023-04-15T09:57:53.624Z,58.03
2023-04-15T09:59:59.557Z,58.83
2023-04-15T10:02:06.366Z,58.36
2023-04-15T10:04:11.677Z,60.49
2023-04-15T10:06:16.402Z,61.03
2023-04-15T10:08:22.385Z,60.80
2023-04-15T10:10:27.479Z,61.25
2023-04-15T10:12:33.513Z,58.94
2023-04-15T10:14:39.609Z,59.41
2023-04-15T10:16:49.550Z,60.29
2023-04-15T10:18:56.906Z,62.25
2023-04-15T10:21:02.245Z,59.33
2023-04-15T10:23:09.533Z,60.08
2023-04-15T10:25:16.824Z,58.58
2023-04-15T10:27:22.121Z,61.09
2023-04-15T10:29:27.239Z,61.03
2023-04-15T10:31:31.877Z,60.22
2023-04-15T10:33:39.158Z,60.50
2023-04-15T10:35:44.093Z,61.59
2023-04-15T10:37:48.382Z,59.79
2023-04-15T10:39:52.818Z,59.49
2023-04-15T10:42:09.676Z,58.83
2023-04-15T10:44:13.933Z,58.45
2023-04-15T10:46:24.018Z,58.39
2023-04-15T10:48:28.469Z,59.66
2023-04-15T10:50:34.765Z,60.38
2023-04-15T10:52:41.966Z,59.01
2023-04-15T10:54:46.740Z,59.46
2023-04-15T10:56:53.141Z,59.51
2023-04-15T10:58:57.473Z,61.30
2023-04-15T11:01:04.474Z,60.98
2023-04-15T11:03:09.783Z,60.41
2023-04-15T11:05:14.844Z,60.68
2023-04-15T11:07:39.294Z,62.93
2023-04-15T11:09:43.587Z,60.98
2023-04-15T11:12:17.699Z,62.19
2023-04-15T11:14:22.148Z,60.00
2023-04-15T11:16:27.207Z,61.08
2023-04-15T11:18:33.065Z,60.59
2023-04-15T11:20:37.748Z,62.57
2023-04-15T11:22:49.542Z,62.99
2023-04-15T11:24:53.880Z,61.61
2023-04-15T11:26:59.797Z,63.02
2023-04-15T11:29:05.303Z,62.77
2023-04-15T11:31:12.342Z,63.39
2023-04-15T11:33:16.635Z,62.98
2023-04-15T11:35:23.775Z,62.69
2023-04-15T11:37:31.694Z,62.79
2023-04-15T11:39:38.524Z,64.19
2023-04-15T11:41:44.073Z,64.28
2023-04-15T11:43:48.424Z,63.32
2023-04-15T11:45:54.225Z,63.17
2023-04-15T11:48:06.881Z,63.49
2023-04-15T11:50:18.582Z,60.24
2023-04-15T11:52:21.835Z,61.63
2023-04-15T11:54:25.138Z,62.61
2023-04-15T11:56:29.922Z,62.07
2023-04-15T11:58:32.991Z,58.61
2023-04-15T12:00:36.618Z,59.08
2023-04-15T12:02:40.834Z,57.05
2023-04-15T12:04:44.249Z,58.10
2023-04-15T12:06:47.449Z,57.61
2023-04-15T12:08:50.915Z,57.99
2023-04-15T12:11:00.292Z,57.46
2023-04-15T12:13:09.136Z,60.28
2023-04-15T12:15:12.234Z,59.79
2023-04-15T12:17:15.398Z,57.04
2023-04-15T12:19:20.284Z,58.82
2023-04-15T12:21:24.759Z,59.34
2023-04-15T12:23:28.044Z,60.13
2023-04-15T12:25:37.645Z,59.89
2023-04-15T12:27:40.795Z,59.46
2023-04-15T12:29:45.306Z,59.83
2023-04-15T12:31:50.700Z,61.31
2023-04-15T12:33:56.407Z,60.62
2023-04-15T12:35:59.516Z,59.21
2023-04-15T12:38:02.646Z,60.63
2023-04-15T12:40:10.029Z,60.69
2023-04-15T12:42:13.830Z,61.42
2023-04-15T12:44:17.326Z,60.34
2023-04-15T12:46:21.897Z,58.70
2023-04-15T12:48:25.445Z,60.69
2023-04-15T12:50:28.507Z,59.01
2023-04-15T12:52:31.545Z,57.47
2023-04-15T12:54:36.033Z,56.41
2023-04-15T12:56:39.222Z,56.75
2023-04-15T12:58:42.330Z,58.43
2023-04-15T13:00:45.694Z,58.59
2023-04-15T13:02:50.534Z,56.91
2023-04-15T13:04:53.785Z,58.21
2023-04-15T13:06:56.986Z,58.52
2023-04-15T13:09:01.896Z,57.64
2023-04-15T13:11:05.939Z,57.37
2023-04-15T13:13:09.573Z,56.77
2023-04-15T13:15:13.176Z,57.57
2023-04-15T13:17:17.493Z,60.16
2023-04-15T13:19:21.999Z,58.30
2023-04-15T13:21:25.605Z,54.90
2023-04-15T13:23:28.826Z,55.87
2023-04-15T13:25:32.131Z,54.38
2023-04-15T13:27:35.371Z,53.07
2023-04-15T13:29:38.703Z,53.69
2023-04-15T13:31:41.821Z,54.49
2023-04-15T13:33:44.970Z,55.29
2023-04-15T13:35:49.480Z,56.45
2023-04-15T13:37:52.757Z,54.71
2023-04-15T13:39:56.614Z,56.17
2023-04-15T13:41:59.639Z,56.32
2023-04-15T13:44:03.052Z,56.14
2023-04-15T13:46:06.753Z,54.85
2023-04-15T13:48:09.822Z,55.26
2023-04-15T13:50:13.261Z,56.01
2023-04-15T13:52:17.671Z,57.68
2023-04-15T13:54:20.760Z,57.27
2023-04-15T13:56:24.064Z,56.89
2023-04-15T13:58:27.144Z,57.42
2023-04-15T14:00:30.426Z,57.81
2023-04-15T14:02:33.587Z,59.78
2023-04-15T14:04:36.837Z,59.33
2023-04-15T14:06:39.950Z,61.33
2023-04-15T14:08:44.529Z,61.09
2023-04-15T14:10:48.477Z,61.49
2023-04-15T14:12:51.607Z,59.13
2023-04-15T14:14:54.759Z,60.46
2023-04-15T14:16:58.822Z,60.81
2023-04-15T14:19:02.863Z,59.96
2023-04-15T14:21:07.378Z,59.75
2023-04-15T14:23:10.513Z,60.74
2023-04-15T14:25:23.139Z,61.60
2023-04-15T14:27:33.769Z,60.71
2023-04-15T14:29:36.799Z,61.98
2023-04-15T14:31:40.059Z,61.97
2023-04-15T14:33:44.682Z,61.34
2023-04-15T14:35:47.794Z,62.60
2023-04-15T14:37:50.934Z,63.03
2023-04-15T14:39:53.936Z,63.82
2023-04-15T14:41:58.586Z,62.72
2023-04-15T14:44:01.769Z,63.15
2023-04-15T14:46:05.089Z,63.60
2023-04-15T14:48:09.894Z,64.93
2023-04-15T14:50:13.101Z,63.33
2023-04-15T14:52:16.130Z,64.65
2023-04-15T14:54:21.164Z,65.23
2023-04-15T14:56:25.463Z,63.21
2023-04-15T14:58:30.132Z,64.66
2023-04-15T15:00:33.199Z,63.95
2023-04-15T15:02:39.737Z,64.75
2023-04-15T15:04:43.788Z,66.49
2023-04-15T15:06:49.132Z,67.23
2023-04-15T15:08:52.416Z,66.16
2023-04-15T15:10:55.604Z,69.07
2023-04-15T15:12:58.662Z,70.31
2023-04-15T15:15:12.345Z,71.12
2023-04-15T15:17:19.602Z,73.62
2023-04-15T15:19:23.635Z,73.64
2023-04-15T15:21:27.160Z,75.74
2023-04-15T15:23:30.385Z,75.32
2023-04-15T15:25:33.440Z,76.51
2023-04-15T15:27:38.249Z,76.37
2023-04-15T15:29:41.425Z,77.25
2023-04-15T15:31:45.943Z,78.34
2023-04-15T15:33:49.111Z,78.46
2023-04-15T15:35:52.499Z,80.00
2023-04-15T15:37:56.020Z,81.33
2023-04-15T15:39:59.310Z,80.55
2023-04-15T15:42:02.480Z,81.43
2023-04-15T15:44:05.700Z,81.76
2023-04-15T15:46:08.905Z,82.95
2023-04-15T15:48:13.996Z,84.13
2023-04-15T15:50:17.197Z,85.22
2023-04-15T15:52:20.395Z,84.72
2023-04-15T15:54:23.575Z,85.62
2023-04-15T15:56:27.032Z,86.44
2023-04-15T15:58:31.723Z,85.50
2023-04-15T16:00:34.880Z,85.73
2023-04-15T16:03:04.390Z,86.66
2023-04-15T16:05:02.610Z,88.17
2023-04-15T16:07:05.909Z,88.64
2023-04-15T16:09:09.002Z,88.14
2023-04-15T16:11:12.256Z,87.78
2023-04-15T16:13:15.371Z,87.17
2023-04-15T16:15:18.500Z,87.73
2023-04-15T16:17:21.673Z,89.85
2023-04-15T16:19:24.857Z,87.95
2023-04-15T16:21:29.390Z,88.18
2023-04-15T16:23:32.610Z,88.77
2023-04-15T16:25:36.026Z,87.87
2023-04-15T16:29:45.602Z,88.26
2023-04-15T16:31:49.141Z,88.96
2023-04-15T16:33:52.352Z,88.52
2023-04-15T16:35:55.485Z,88.16
2023-04-15T16:38:00.410Z,87.81
2023-04-15T16:40:03.741Z,87.11
2023-04-15T16:42:07.416Z,89.09
2023-04-15T16:44:10.876Z,87.15
2023-04-15T16:46:13.988Z,88.35
2023-04-15T16:48:17.142Z,89.57
2023-04-15T16:50:20.873Z,90.52
2023-04-15T16:52:24.022Z,90.81
2023-04-15T16:54:29.747Z,90.77
2023-04-15T16:56:32.840Z,91.95
2023-04-15T16:58:35.884Z,90.89
2023-04-15T17:00:39.228Z,89.37
2023-04-15T17:02:42.530Z,91.21
2023-04-15T17:04:45.841Z,90.53
2023-04-15T17:06:50.196Z,91.28
2023-04-15T17:08:53.402Z,88.93
2023-04-15T17:10:58.425Z,89.82
2023-04-15T17:13:01.520Z,90.43
2023-04-15T17:15:05.391Z,89.36
2023-04-15T17:17:10.794Z,89.70
2023-04-15T17:19:14.054Z,91.55
2023-04-15T17:21:24.026Z,91.67
2023-04-15T17:23:32.162Z,91.55
2023-04-15T17:25:35.356Z,91.46
2023-04-15T17:27:42.103Z,91.25
2023-04-15T17:29:51.447Z,91.76
2023-04-15T17:32:14.585Z,90.47
2023-04-15T17:34:49.743Z,89.82
2023-04-15T17:37:13.869Z,90.31
2023-04-15T17:39:36.972Z,90.45
2023-04-15T17:42:00.131Z,90.38
2023-04-15T17:44:25.386Z,89.90
2023-04-15T17:46:48.455Z,91.01
2023-04-15T17:49:12.014Z,90.45
2023-04-15T17:51:35.042Z,90.11
2023-04-15T17:54:04.279Z,90.32
2023-04-15T17:56:28.971Z,90.05
2023-04-15T17:58:53.096Z,89.92
2023-04-15T18:01:17.464Z,90.58
2023-04-15T18:03:40.543Z,91.78
2023-04-15T18:06:03.733Z,91.07
2023-04-15T18:08:26.784Z,92.20
2023-04-15T18:10:49.831Z,91.58
2023-04-15T18:13:12.937Z,91.47
2023-04-15T18:15:36.041Z,92.07
2023-04-15T18:18:01.360Z,92.08
2023-04-15T18:20:04.566Z,92.38
2023-04-15T18:22:08.244Z,92.91
2023-04-15T18:24:11.348Z,93.16
2023-04-15T18:26:14.575Z,93.21
2023-04-15T18:28:17.629Z,92.43
2023-04-15T18:30:20.807Z,93.00
2023-04-15T18:32:24.105Z,92.61
2023-04-15T18:34:28.751Z,93.20
2023-04-15T18:36:32.689Z,92.56
2023-04-15T18:38:35.780Z,92.51
2023-04-15T18:40:39.000Z,94.02
2023-04-15T18:42:42.117Z,94.03
2023-04-15T18:44:45.310Z,93.97
2023-04-15T18:46:49.676Z,93.56
2023-04-15T18:48:55.672Z,93.19
2023-04-15T18:51:00.224Z,94.67
2023-04-15T18:53:03.421Z,94.42
2023-04-15T18:55:07.439Z,94.35
2023-04-15T18:57:10.735Z,94.90
2023-04-15T18:59:29.118Z,94.42
2023-04-15T19:01:33.641Z,94.23
2023-04-15T19:03:36.844Z,93.64
2023-04-15T19:05:40.190Z,94.29
2023-04-15T19:07:44.699Z,94.35
2023-04-15T19:09:47.987Z,94.77
2023-04-15T19:11:51.184Z,95.23
2023-04-15T19:13:54.501Z,94.10
2023-04-15T19:15:57.701Z,95.28
2023-04-15T19:18:01.040Z,95.66
2023-04-15T19:20:04.713Z,94.78
2023-04-15T19:22:08.178Z,95.39
2023-04-15T19:24:13.128Z,94.67
2023-04-15T19:26:16.495Z,95.75
2023-04-15T19:28:19.718Z,94.87
2023-04-15T19:30:23.117Z,95.80
2023-04-15T19:32:26.323Z,94.59
2023-04-15T19:34:29.559Z,95.64
2023-04-15T19:36:33.376Z,96.03
2023-04-15T19:38:37.392Z,95.65
2023-04-15T19:40:42.124Z,95.53
2023-04-15T19:42:45.377Z,95.66
2023-04-15T19:44:48.588Z,94.97
2023-04-15T19:46:53.160Z,94.82
2023-04-15T19:48:56.482Z,95.20
2023-04-15T19:51:00.511Z,95.60
2023-04-15T19:53:03.826Z,95.79
2023-04-15T19:55:07.239Z,96.41
2023-04-15T19:57:11.786Z,96.45
2023-04-15T19:59:14.897Z,96.35
2023-04-15T20:01:17.960Z,96.09
2023-04-15T20:03:21.375Z,96.50
2023-04-15T20:05:24.924Z,97.08
2023-04-15T20:07:28.409Z,97.12
2023-04-15T20:09:31.949Z,96.91
2023-04-15T20:12:45.581Z,96.27
2023-04-15T20:14:00.010Z,96.85
2023-04-15T20:16:04.191Z,96.66
2023-04-15T20:18:07.445Z,96.34
2023-04-15T20:20:11.048Z,97.08
2023-04-15T20:22:14.220Z,97.20
2023-04-15T20:24:17.936Z,96.86
2023-04-15T20:26:21.650Z,96.82
2023-04-15T20:28:27.410Z,96.22
2023-04-15T20:30:31.962Z,96.82
2023-04-15T20:32:36.396Z,97.40
2023-04-15T20:34:40.096Z,97.29
2023-04-15T20:36:43.254Z,96.82
2023-04-15T20:38:46.479Z,96.24
2023-04-15T20:40:49.818Z,96.73
2023-04-15T20:42:53.227Z,96.62
2023-04-15T20:44:56.520Z,97.05
2023-04-15T20:47:01.068Z,96.83
2023-04-15T20:49:04.546Z,97.34
2023-04-15T20:51:07.888Z,96.08
2023-04-15T20:53:11.109Z,96.24
2023-04-15T20:55:14.360Z,97.23
2023-04-15T20:57:17.536Z,96.23
2023-04-15T20:59:20.864Z,95.88
2023-04-15T21:01:24.021Z,97.41
2023-04-15T21:03:28.596Z,97.31
2023-04-15T21:05:31.971Z,97.77
2023-04-15T21:07:35.083Z,98.08
2023-04-15T21:09:41.462Z,97.74
2023-04-15T21:12:00.339Z,98.23
2023-04-15T21:14:07.914Z,97.41
2023-04-15T21:16:10.990Z,97.66
2023-04-15T21:18:14.374Z,97.74
2023-04-15T21:20:19.142Z,97.20
2023-04-15T21:22:22.420Z,98.23
2023-04-15T21:24:25.841Z,97.57
2023-04-15T21:26:29.075Z,98.34
2023-04-15T21:28:32.148Z,98.16
2023-04-15T21:30:35.287Z,96.84
2023-04-15T21:32:38.481Z,97.36
2023-04-15T21:34:41.583Z,98.28
2023-04-15T21:36:46.088Z,97.24
2023-04-15T21:38:49.189Z,97.89
2023-04-15T21:40:52.280Z,98.02
2023-04-15T21:42:55.372Z,97.75
2023-04-15T21:44:58.504Z,98.26
2023-04-15T21:47:01.993Z,98.54
2023-04-15T21:49:07.041Z,98.59
2023-04-15T21:51:10.286Z,98.92
2023-04-15T21:53:14.722Z,98.66
2023-04-15T21:55:18.141Z,99.24
2023-04-15T21:57:21.283Z,99.06
2023-04-15T21:59:24.454Z,99.00
2023-04-15T22:01:27.903Z,98.54
2023-04-15T22:03:34.886Z,98.34
2023-04-15T22:05:38.232Z,98.83
2023-04-15T22:07:41.368Z,99.44
2023-04-15T22:09:46.451Z,99.19
2023-04-15T22:11:50.109Z,98.83
2023-04-15T22:13:53.287Z,98.65
2023-04-15T22:15:56.512Z,98.69
2023-04-15T22:17:59.670Z,98.96
2023-04-15T22:20:03.080Z,99.09
2023-04-15T22:22:06.441Z,98.61
2023-04-15T22:24:38.366Z,98.79
2023-04-15T22:26:33.880Z,98.21
2023-04-15T22:28:37.327Z,98.77
2023-04-15T22:30:41.139Z,99.72
2023-04-15T22:32:44.626Z,99.58
2023-04-15T22:34:47.881Z,98.99
2023-04-15T22:36:51.657Z,100.00
2023-04-15T22:38:54.731Z,98.97
2023-04-15T22:40:58.472Z,98.53
2023-04-15T22:43:03.043Z,99.90
2023-04-15T22:45:07.265Z,99.47
2023-04-15T22:47:10.404Z,99.79
2023-04-15T22:49:13.507Z,99.32
2023-04-15T22:51:22.615Z,99.40
2023-04-15T22:53:26.394Z,98.64
2023-04-15T22:55:29.414Z,100.00
2023-04-15T22:57:32.577Z,99.69
2023-04-15T22:59:37.078Z,99.15
2023-04-15T23:01:40.324Z,98.73
2023-04-15T23:03:55.822Z,99.10
2023-04-15T23:06:02.266Z,100.00
2023-04-15T23:08:05.400Z,99.73
2023-04-15T23:10:09.510Z,99.70
2023-04-15T23:12:15.022Z,99.14
2023-04-15T23:14:18.108Z,98.95
2023-04-15T23:16:22.750Z,99.22
2023-04-15T23:18:26.006Z,99.92
2023-04-15T23:20:29.138Z,100.00
2023-04-15T23:22:32.279Z,99.97
2023-04-15T23:24:35.381Z,99.21
2023-04-15T23:26:38.605Z,99.91
2023-04-15T23:28:41.953Z,99.29
2023-04-15T23:30:45.477Z,100.00
2023-04-15T23:32:49.969Z,99.08
2023-04-15T23:34:53.216Z,100.00
2023-04-15T23:36:56.195Z,100.00
2023-04-15T23:38:59.264Z,99.59
2023-04-15T23:41:02.359Z,99.63
2023-04-15T23:43:05.666Z,99.99
2023-04-15T23:45:10.336Z,100.00
2023-04-15T23:47:13.482Z,99.30
2023-04-15T23:49:20.150Z,100.00
2023-04-15T23:51:23.784Z,99.89
2023-04-15T23:53:26.940Z,100.00
2023-04-15T23:55:30.515Z,99.17
2023-04-15T23:57:33.553Z,99.54
2023-04-15T23:59:36.748Z,100.00
